Time;durP1;ratioP1;P1;durP2;ratioP2;P2;SDS_P1;SDS_P2;PMS_P1;PMS_P2;Temp;Humidity;BMP_temperature;BMP_pressure;BME280_temperature;BME280_humidity;BME280_pressure;Samples;Min_cycle;Max_cycle;Signal;HPM_P1;HPM_P2
2022/02/14 00:00:23;;;;;;;4.75;3.60;;;;;;;3.57;68.39;97884.63;4168991;28;20211;-72
2022/02/14 00:02:24;;;;;;;4.70;3.60;;;;;;;3.70;68.86;97879.91;4168792;28;20045;-72
2022/02/14 00:04:24;;;;;;;7.35;4.20;;;;;;;3.80;69.41;97879.41;4168829;28;20045;-72
2022/02/14 00:06:24;;;;;;;7.43;4.10;;;;;;;3.69;70.17;97878.31;4168283;28;20052;-72
2022/02/14 00:08:25;;;;;;;6.63;3.90;;;;;;;3.56;70.89;97875.63;4168552;28;20137;-72
2022/02/14 00:10:25;;;;;;;7.05;4.15;;;;;;;3.50;69.42;97879.75;4168525;28;20519;-72
2022/02/14 00:12:25;;;;;;;5.07;3.70;;;;;;;3.44;69.90;97867.44;4168765;28;20045;-72
2022/02/14 00:14:27;;;;;;;7.55;3.92;;;;;;;3.35;71.05;97861.31;4168751;28;20070;-72
2022/02/14 00:16:28;;;;;;;6.72;4.30;;;;;;;3.26;72.51;97861.47;4168813;28;20512;-72
2022/02/14 00:18:28;;;;;;;8.05;4.45;;;;;;;3.21;70.61;97850.75;4168453;28;20472;-72
2022/02/14 00:20:29;;;;;;;11.38;5.15;;;;;;;3.21;70.19;97850.75;4168132;28;20489;-72
2022/02/14 00:22:30;;;;;;;5.75;3.63;;;;;;;3.24;69.95;97855.53;4171767;28;20041;-72
2022/02/14 00:24:30;;;;;;;7.35;3.78;;;;;;;3.23;69.87;97856.69;4172503;28;20479;-72
2022/02/14 00:26:31;;;;;;;5.22;3.92;;;;;;;3.20;71.92;97860.09;4172019;28;20243;-72
2022/02/14 00:28:32;;;;;;;7.72;4.05;;;;;;;3.13;72.90;97848.16;4172355;28;20092;-72
2022/02/14 00:30:32;;;;;;;6.82;4.50;;;;;;;3.09;73.09;97857.03;4171097;28;20068;-72
2022/02/14 00:32:34;;;;;;;6.20;3.88;;;;;;;3.11;70.17;97848.50;4172297;28;20048;-72
2022/02/14 00:34:34;;;;;;;7.60;4.00;;;;;;;3.08;71.32;97849.19;4171593;28;20492;-72
2022/02/14 00:36:35;;;;;;;6.40;4.28;;;;;;;2.97;73.43;97837.91;4171728;28;20060;-72
2022/02/14 00:38:35;;;;;;;6.20;3.83;;;;;;;2.91;73.25;97842.03;4171624;28;20091;-72
2022/02/14 00:40:36;;;;;;;7.55;4.53;;;;;;;2.90;73.51;97843.19;4172484;28;20052;-72
2022/02/14 00:42:36;;;;;;;6.53;4.35;;;;;;;2.79;75.42;97837.38;4172072;28;20045;-72
2022/02/14 00:44:36;;;;;;;7.45;4.25;;;;;;;2.70;75.49;97846.81;4172059;28;20167;-72
2022/02/14 00:46:37;;;;;;;5.57;3.97;;;;;;;2.62;76.51;97834.06;4171081;28;20037;-72
2022/02/14 00:48:37;;;;;;;7.70;4.32;;;;;;;2.54;75.35;97833.84;4171834;28;20041;-72
2022/02/14 00:50:37;;;;;;;7.28;4.38;;;;;;;2.53;74.44;97839.66;4171722;28;20113;-72
2022/02/14 00:52:40;;;;;;;6.45;3.85;;;;;;;2.56;76.29;97833.50;4172303;28;20627;-72
2022/02/14 00:54:40;;;;;;;5.93;4.15;;;;;;;2.58;73.51;97833.19;4171580;28;20049;-72
2022/02/14 00:56:40;;;;;;;5.57;3.75;;;;;;;2.53;76.75;97839.66;4171697;28;20059;-72
2022/02/14 00:58:41;;;;;;;7.85;4.03;;;;;;;2.50;77.67;97830.22;4171282;28;20236;-72
2022/02/14 01:00:41;;;;;;;8.27;4.07;;;;;;;2.54;76.63;97827.56;4171863;28;20410;-72
2022/02/14 01:02:42;;;;;;;6.43;4.18;;;;;;;2.59;76.38;97826.56;4172010;28;20053;-72
2022/02/14 01:04:43;;;;;;;5.78;4.05;;;;;;;2.58;76.30;97817.59;4171387;28;20048;-72
2022/02/14 01:06:43;;;;;;;6.97;4.25;;;;;;;2.53;75.46;97815.88;4170866;28;20529;-72
2022/02/14 01:08:43;;;;;;;6.32;4.38;;;;;;;2.44;76.44;97808.94;4171451;28;20056;-72
2022/02/14 01:10:44;;;;;;;5.78;4.05;;;;;;;2.37;76.19;97814.16;4171763;28;20045;-72
2022/02/14 01:12:44;;;;;;;6.88;4.55;;;;;;;2.36;77.66;97818.81;4171497;28;20110;-72
2022/02/14 01:14:44;;;;;;;6.85;3.83;;;;;;;2.29;76.32;97806.84;4171637;28;20041;-72
2022/02/14 01:16:45;;;;;;;6.55;4.15;;;;;;;2.25;76.95;97809.47;4170988;28;20139;-72
2022/02/14 01:18:45;;;;;;;5.60;3.88;;;;;;;2.20;78.43;97812.41;4171368;28;20053;-72
2022/02/14 01:20:45;;;;;;;8.00;4.57;;;;;;;2.14;77.81;97802.84;4171651;28;20484;-72
2022/02/14 01:22:46;;;;;;;8.50;4.60;;;;;;;2.11;79.52;97804.34;4171822;28;20053;-72
2022/02/14 01:24:46;;;;;;;5.93;4.20;;;;;;;2.07;77.42;97806.16;4171470;28;20068;-72
2022/02/14 01:26:46;;;;;;;7.03;3.92;;;;;;;2.22;79.04;97802.75;4170634;28;20319;-72
2022/02/14 01:28:47;;;;;;;6.93;4.07;;;;;;;2.23;75.51;97807.09;4171310;28;20574;-72
2022/02/14 01:30:47;;;;;;;9.05;4.30;;;;;;;2.22;75.79;97791.03;4170365;28;20053;-72
2022/02/14 01:32:48;;;;;;;7.38;4.45;;;;;;;2.22;77.68;97793.78;4170549;28;20429;-72
2022/02/14 01:34:49;;;;;;;6.32;4.30;;;;;;;2.19;76.91;97783.53;4169559;28;20072;-72
2022/02/14 01:36:50;;;;;;;5.72;4.47;;;;;;;2.20;76.75;97779.69;4170412;28;20056;-72
2022/02/14 01:38:50;;;;;;;8.18;4.47;;;;;;;2.23;75.63;97784.44;4171094;28;20048;-72
2022/02/14 01:40:50;;;;;;;6.57;4.28;;;;;;;2.17;77.48;97777.63;4170382;28;20048;-72
2022/02/14 01:42:50;;;;;;;6.57;4.35;;;;;;;2.20;77.43;97771.50;4171100;28;20525;-72
2022/02/14 01:44:53;;;;;;;7.28;4.10;;;;;;;2.20;78.05;97764.09;4170785;28;20091;-72
2022/02/14 01:46:53;;;;;;;6.95;4.05;;;;;;;2.18;75.38;97760.91;4169908;28;20045;-72
2022/02/14 01:48:53;;;;;;;7.82;4.75;;;;;;;2.12;74.71;97761.47;4171139;28;20057;-72
2022/02/14 01:50:54;;;;;;;8.77;4.65;;;;;;;2.06;75.81;97749.97;4171316;28;20053;-72
2022/02/14 01:52:54;;;;;;;6.88;4.40;;;;;;;1.98;77.51;97750.88;4170851;28;20132;-72
2022/02/14 01:54:55;;;;;;;6.25;3.90;;;;;;;1.93;77.69;97741.00;4170853;28;20049;-72
2022/02/14 01:56:55;;;;;;;6.45;4.32;;;;;;;1.93;76.96;97748.38;4170367;28;20056;-72
2022/02/14 01:58:55;;;;;;;9.20;4.20;;;;;;;1.94;77.24;97745.31;4170869;28;20037;-72
2022/02/14 02:00:56;;;;;;;4.85;3.67;;;;;;;1.97;78.96;97741.09;4170644;28;20041;-72
2022/02/14 02:02:57;;;;;;;6.50;3.92;;;;;;;2.00;77.01;97740.44;4170680;28;20396;-72
2022/02/14 02:04:58;;;;;;;5.43;3.70;;;;;;;2.09;75.29;97740.34;4170586;28;20072;-72
2022/02/14 02:06:59;;;;;;;6.07;4.43;;;;;;;2.15;76.91;97741.69;4170043;28;20033;-72
2022/02/14 02:08:59;;;;;;;6.00;3.90;;;;;;;2.13;76.00;97735.78;4170804;28;20493;-72
2022/02/14 02:13:18;;;;;;;6.63;4.28;;;;;;;2.19;74.71;97729.75;4170652;28;20060;-72
2022/02/14 02:15:19;;;;;;;9.65;4.45;;;;;;;2.20;75.37;97723.16;4170437;28;20444;-72
2022/02/14 02:17:20;;;;;;;7.47;3.72;;;;;;;2.22;74.63;97715.41;4169573;28;20041;-72
2022/02/14 02:19:20;;;;;;;9.88;4.40;;;;;;;2.17;74.08;97712.94;4170409;28;20051;-72
2022/02/14 02:21:21;;;;;;;7.03;4.10;;;;;;;2.16;77.03;97721.47;4170405;28;20092;-72
2022/02/14 02:23:21;;;;;;;6.22;4.22;;;;;;;2.16;76.18;97703.16;4170746;28;20068;-71
2022/02/14 02:25:22;;;;;;;9.75;4.32;;;;;;;2.17;75.82;97712.13;4170599;28;20067;-72
2022/02/14 02:27:27;;;;;;;8.48;4.07;;;;;;;2.12;75.99;97696.78;4169530;28;20434;-72
2022/02/14 02:29:27;;;;;;;8.30;4.32;;;;;;;2.15;73.50;97698.00;4170448;28;20053;-72
2022/02/14 02:31:28;;;;;;;6.18;4.18;;;;;;;2.17;76.10;97685.63;4170195;28;20746;-72
2022/02/14 02:33:32;;;;;;;6.15;3.20;;;;;;;2.19;74.64;97688.03;4170589;28;20056;-72
2022/02/14 02:35:32;;;;;;;4.88;3.60;;;;;;;2.22;74.31;97688.13;4170051;28;20053;-72
2022/02/14 02:37:33;;;;;;;6.22;3.80;;;;;;;2.21;75.32;97683.81;4169287;28;20129;-72
2022/02/14 02:39:35;;;;;;;6.45;3.83;;;;;;;2.26;74.50;97680.06;4170834;28;20072;-72
2022/02/14 02:41:35;;;;;;;8.38;4.43;;;;;;;2.25;74.83;97675.75;4170171;28;20527;-72
2022/02/14 02:43:36;;;;;;;6.45;3.35;;;;;;;2.23;74.45;97678.00;4170243;28;20053;-72
2022/02/14 02:45:37;;;;;;;8.60;4.15;;;;;;;2.19;73.88;97666.19;4168772;28;20045;-72
2022/02/14 02:47:38;;;;;;;7.25;3.83;;;;;;;2.13;74.98;97673.00;4169823;28;20507;-72
2022/02/14 02:49:39;;;;;;;8.63;4.25;;;;;;;2.16;75.51;97675.88;4169935;28;20140;-72
2022/02/14 02:51:41;;;;;;;7.50;4.03;;;;;;;2.17;75.77;97669.25;4170179;28;20087;-72
2022/02/14 02:53:41;;;;;;;6.60;3.72;;;;;;;2.16;75.82;97662.22;4170211;28;20442;-73
2022/02/14 02:55:41;;;;;;;4.60;3.30;;;;;;;2.18;75.85;97668.13;4169792;28;20076;-72
2022/02/14 02:57:41;;;;;;;5.43;3.88;;;;;;;2.16;76.44;97656.75;4169332;28;20045;-72
2022/02/14 02:59:43;;;;;;;5.90;3.97;;;;;;;2.20;75.34;97662.31;4169524;28;20052;-72
2022/02/14 03:01:44;;;;;;;7.18;3.72;;;;;;;2.18;74.25;97649.03;4170257;28;20098;-72
2022/02/14 03:03:44;;;;;;;6.95;3.63;;;;;;;2.22;75.92;97658.09;4169681;28;20160;-72
2022/02/14 03:05:45;;;;;;;5.00;3.53;;;;;;;2.22;75.88;97660.81;4168288;28;20045;-72
2022/02/14 03:07:45;;;;;;;8.18;4.35;;;;;;;2.21;73.55;97652.97;4169587;28;20041;-72
2022/02/14 03:09:46;;;;;;;6.47;3.80;;;;;;;2.18;76.00;97638.09;4169743;28;20448;-72
2022/02/14 03:11:46;;;;;;;6.60;3.38;;;;;;;2.19;74.77;97642.41;4169594;28;20049;-72
2022/02/14 03:13:47;;;;;;;6.88;3.58;;;;;;;2.19;75.00;97652.53;4169764;28;20422;-72
2022/02/14 03:15:48;;;;;;;7.55;3.60;;;;;;;2.13;75.76;97643.00;4169626;28;20048;-72
2022/02/14 03:17:48;;;;;;;7.25;3.83;;;;;;;2.14;76.17;97641.84;4168698;28;20049;-72
2022/02/14 03:19:48;;;;;;;4.93;3.33;;;;;;;2.16;75.05;97640.38;4169743;28;20049;-72
2022/02/14 03:21:49;;;;;;;4.97;3.28;;;;;;;2.19;75.46;97631.50;4170086;28;20044;-72
2022/02/14 03:23:51;;;;;;;6.57;3.85;;;;;;;2.21;74.61;97640.13;4169150;28;20478;-72
2022/02/14 03:25:51;;;;;;;8.02;3.70;;;;;;;2.21;74.18;97634.66;4169180;28;20148;-72
2022/02/14 03:27:51;;;;;;;5.80;3.70;;;;;;;2.33;72.46;97647.53;4168965;28;20550;-72
2022/02/14 03:29:52;;;;;;;6.05;3.58;;;;;;;2.40;71.89;97630.53;4169413;28;20047;-72
2022/02/14 03:31:53;;;;;;;7.00;3.03;;;;;;;2.40;73.90;97633.28;4169462;28;20065;-72
2022/02/14 03:33:53;;;;;;;6.75;3.80;;;;;;;2.46;71.49;97642.81;4169354;28;20049;-72
2022/02/14 03:35:54;;;;;;;5.28;3.80;;;;;;;2.55;71.27;97640.75;4169899;28;20111;-72
2022/02/14 03:37:56;;;;;;;5.43;2.90;;;;;;;2.59;72.75;97627.22;4168752;28;20111;-72
2022/02/14 03:39:56;;;;;;;6.22;2.92;;;;;;;2.61;71.81;97622.97;4169590;28;20136;-72
2022/02/14 03:41:56;;;;;;;7.85;3.30;;;;;;;2.64;72.16;97633.19;4169835;28;20083;-72
2022/02/14 03:43:57;;;;;;;5.60;2.88;;;;;;;2.60;71.89;97634.25;4169286;28;20054;-72
2022/02/14 03:45:57;;;;;;;5.65;3.38;;;;;;;2.67;69.77;97624.34;4169139;28;20060;-72
2022/02/14 03:47:58;;;;;;;5.57;3.20;;;;;;;2.70;70.64;97625.56;4168613;28;20052;-72
2022/02/14 03:49:58;;;;;;;4.78;3.00;;;;;;;2.69;69.91;97626.72;4169364;28;20049;-72
2022/02/14 03:51:58;;;;;;;5.70;3.17;;;;;;;2.66;71.36;97624.69;4169172;28;20087;-72
2022/02/14 03:53:59;;;;;;;6.25;3.30;;;;;;;2.74;69.57;97626.47;4169367;28;20114;-72
2022/02/14 03:55:59;;;;;;;7.65;3.35;;;;;;;2.76;70.30;97626.91;4169270;28;20465;-72
2022/02/14 03:58:00;;;;;;;6.90;3.25;;;;;;;2.74;69.38;97623.75;4171258;28;20538;-72
2022/02/14 04:00:00;;;;;;;5.95;3.28;;;;;;;2.75;69.05;97628.84;4172723;28;20040;-72
2022/02/14 04:02:01;;;;;;;5.68;3.22;;;;;;;2.72;69.69;97610.41;4172480;28;20049;-72
2022/02/14 04:04:01;;;;;;;4.35;2.92;;;;;;;2.72;71.00;97610.41;4172052;28;20035;-72
2022/02/14 04:06:01;;;;;;;4.43;2.75;;;;;;;2.70;70.99;97603.72;4173670;28;20032;-73
2022/02/14 04:08:02;;;;;;;4.90;3.00;;;;;;;2.62;70.58;97607.38;4170843;28;20041;-73
2022/02/14 04:10:04;;;;;;;5.40;3.42;;;;;;;2.61;69.61;97603.88;4172679;28;20098;-72
2022/02/14 04:12:05;;;;;;;5.30;2.83;;;;;;;2.60;69.23;97598.75;4172709;28;20055;-72
2022/02/14 04:14:05;;;;;;;5.07;3.00;;;;;;;2.59;71.64;97594.44;4172079;28;20033;-72
2022/02/14 04:16:05;;;;;;;4.20;2.85;;;;;;;2.60;70.74;97605.00;4172775;28;20389;-72
2022/02/14 04:18:07;;;;;;;4.40;3.05;;;;;;;2.72;69.47;97606.88;4171732;28;20090;-72
2022/02/14 04:20:08;;;;;;;6.38;2.97;;;;;;;2.72;69.05;97602.22;4172314;28;20120;-72
2022/02/14 04:22:09;;;;;;;5.47;3.25;;;;;;;2.82;66.89;97595.50;4172175;28;20056;-72
2022/02/14 04:24:09;;;;;;;6.32;3.50;;;;;;;2.88;68.59;97596.81;4172516;28;20493;-73
2022/02/14 04:26:09;;;;;;;4.55;3.25;;;;;;;2.86;66.33;97596.38;4172256;28;20381;-72
2022/02/14 04:28:10;;;;;;;5.25;3.00;;;;;;;2.99;67.61;97588.91;4171235;28;20044;-72
2022/02/14 04:30:12;;;;;;;4.90;2.83;;;;;;;3.02;67.06;97590.94;4172558;28;20603;-72
2022/02/14 04:32:12;;;;;;;6.60;3.00;;;;;;;3.00;68.97;97576.84;4172462;28;20068;-72
2022/02/14 04:34:14;;;;;;;6.60;2.88;;;;;;;2.95;67.96;97583.34;4172245;28;20064;-72
2022/02/14 04:36:15;;;;;;;3.70;2.83;;;;;;;2.88;69.25;97588.59;4172085;28;20028;-72
2022/02/14 04:38:15;;;;;;;9.95;3.50;;;;;;;2.87;67.33;97581.56;4171783;28;20271;-72
2022/02/14 04:40:15;;;;;;;4.03;2.90;;;;;;;2.84;66.15;97587.72;4172114;28;20068;-72
2022/02/14 04:42:16;;;;;;;4.13;3.00;;;;;;;2.83;69.12;97579.88;4171713;28;20025;-72
2022/02/14 04:44:16;;;;;;;4.80;2.78;;;;;;;2.77;67.54;97571.16;4172340;28;20067;-73
2022/02/14 04:46:18;;;;;;;6.18;2.83;;;;;;;2.78;67.51;97570.78;4171943;28;20037;-72
2022/02/14 04:48:18;;;;;;;6.45;3.13;;;;;;;2.78;69.10;97564.53;4171329;28;20093;-72
2022/02/14 04:50:19;;;;;;;4.50;2.75;;;;;;;2.89;64.47;97573.00;4172181;28;20507;-72
2022/02/14 04:52:19;;;;;;;7.32;2.90;;;;;;;2.94;67.39;97579.03;4171983;28;20025;-72
2022/02/14 04:54:20;;;;;;;5.18;2.70;;;;;;;2.91;65.27;97566.06;4171923;28;20598;-72
2022/02/14 04:56:20;;;;;;;5.68;2.40;;;;;;;2.89;66.33;97578.47;4171119;28;20183;-72
2022/02/14 04:58:21;;;;;;;5.57;2.30;;;;;;;2.88;65.98;97571.41;4171118;28;20055;-72
2022/02/14 05:00:22;;;;;;;7.18;2.63;;;;;;;2.84;65.27;97565.09;4170645;28;20067;-72
2022/02/14 05:02:22;;;;;;;6.38;3.03;;;;;;;2.76;68.24;97567.63;4170746;28;20473;-72
2022/02/14 05:04:22;;;;;;;5.25;2.90;;;;;;;2.75;66.16;97559.78;4170908;28;20122;-72
2022/02/14 05:06:23;;;;;;;6.53;2.78;;;;;;;2.76;66.04;97559.41;4171373;28;20056;-72
2022/02/14 05:08:23;;;;;;;6.18;2.67;;;;;;;2.79;65.77;97561.44;4169564;28;20055;-72
2022/02/14 05:10:23;;;;;;;4.32;2.67;;;;;;;2.75;65.97;97566.03;4170492;28;20045;-72
2022/02/14 05:12:24;;;;;;;3.65;2.53;;;;;;;2.78;68.40;97562.59;4170976;28;20044;-72
2022/02/14 05:14:24;;;;;;;5.05;2.50;;;;;;;2.79;68.14;97572.38;4170876;28;20508;-72
2022/02/14 05:16:24;;;;;;;4.95;2.58;;;;;;;2.72;67.15;97563.19;4170379;28;20040;-72
2022/02/14 05:18:25;;;;;;;3.53;2.47;;;;;;;2.77;64.49;97562.94;4170569;28;20223;-72
2022/02/14 05:20:25;;;;;;;3.35;2.42;;;;;;;2.80;67.81;97563.03;4170914;28;21221;-72
2022/02/14 05:22:26;;;;;;;3.30;2.50;;;;;;;2.81;65.45;97555.63;4170571;28;20585;-72
2022/02/14 05:24:26;;;;;;;7.97;2.63;;;;;;;2.76;65.77;97567.63;4170992;28;20102;-72
2022/02/14 05:26:26;;;;;;;4.97;3.08;;;;;;;2.77;66.66;97563.75;4169980;28;20127;-72
2022/02/14 05:28:26;;;;;;;8.73;3.17;;;;;;;2.78;64.34;97554.41;4169955;28;20071;-72
2022/02/14 05:30:27;;;;;;;3.75;2.60;;;;;;;2.79;65.84;97558.72;4170828;28;20507;-72
2022/02/14 05:32:27;;;;;;;5.13;2.70;;;;;;;2.77;67.37;97558.28;4171057;28;20072;-72
2022/02/14 05:34:28;;;;;;;4.05;2.65;;;;;;;2.71;65.74;97558.88;4170545;28;20531;-72
2022/02/14 05:36:28;;;;;;;5.75;2.85;;;;;;;2.68;65.72;97557.63;4170331;28;20053;-72
2022/02/14 05:38:28;;;;;;;3.10;2.75;;;;;;;2.66;66.77;97551.75;4169312;28;20053;-72
2022/02/14 05:40:29;;;;;;;5.68;3.00;;;;;;;2.66;65.74;97562.66;4170008;28;20055;-72
2022/02/14 05:42:29;;;;;;;4.28;2.38;;;;;;;2.67;66.98;97558.78;4169022;28;20087;-72
2022/02/14 05:44:30;;;;;;;6.25;3.00;;;;;;;2.67;67.83;97563.47;4170991;28;20449;-72
2022/02/14 05:46:33;;;;;;;5.38;3.10;;;;;;;2.62;69.44;97552.78;4170048;28;20231;-72
2022/02/14 05:48:33;;;;;;;4.63;2.97;;;;;;;2.64;67.37;97558.66;4169622;28;20049;-72
2022/02/14 05:50:33;;;;;;;5.03;2.50;;;;;;;2.56;68.84;97560.41;4170738;28;20047;-72
2022/02/14 05:52:35;;;;;;;4.63;2.83;;;;;;;2.49;68.80;97558.28;4171151;28;20496;-72
2022/02/14 05:54:36;;;;;;;7.10;3.08;;;;;;;2.46;70.45;97550.00;4169357;28;20041;-72
2022/02/14 05:56:37;;;;;;;3.42;2.35;;;;;;;2.41;69.21;97542.06;4110489;28;20091;-72
2022/02/14 05:58:37;;;;;;;4.18;2.65;;;;;;;2.38;68.15;97540.00;4171069;28;20094;-72
2022/02/14 06:00:37;;;;;;;3.45;2.60;;;;;;;2.32;67.77;97541.38;4169301;28;20441;-72
2022/02/14 06:02:38;;;;;;;3.15;2.33;;;;;;;2.32;68.14;97542.22;4169563;28;20049;-72
2022/02/14 06:04:38;;;;;;;4.15;2.60;;;;;;;2.35;67.96;97521.59;4169529;28;20079;-72
2022/02/14 06:06:39;;;;;;;6.05;3.72;;;;;;;2.37;68.11;97517.38;4170271;28;20076;-72
2022/02/14 06:08:39;;;;;;;3.38;2.33;;;;;;;2.39;70.18;97517.03;4170581;28;20052;-72
2022/02/14 06:10:39;;;;;;;5.55;2.72;;;;;;;2.47;67.62;97535.19;4170648;28;20045;-72
2022/02/14 06:12:40;;;;;;;5.15;3.00;;;;;;;2.46;67.09;97536.34;4168709;28;20085;-72
2022/02/14 06:14:40;;;;;;;5.57;3.08;;;;;;;2.40;66.99;97533.09;4169390;28;20343;-72
2022/02/14 06:16:40;;;;;;;6.57;2.80;;;;;;;2.38;67.29;97545.47;4168834;28;20114;-72
2022/02/14 06:18:41;;;;;;;6.20;2.70;;;;;;;2.50;69.47;97550.91;4170826;28;20087;-72
2022/02/14 06:20:41;;;;;;;5.10;2.72;;;;;;;2.46;69.04;97550.00;4170066;28;20132;-72
2022/02/14 06:22:41;;;;;;;6.05;2.60;;;;;;;2.43;69.13;97558.88;4170645;28;20287;-72
2022/02/14 06:24:42;;;;;;;3.55;2.30;;;;;;;2.40;66.58;97556.81;4170645;28;20053;-72
2022/02/14 06:26:43;;;;;;;3.30;2.60;;;;;;;2.35;67.17;97551.63;4170175;28;20053;-72
2022/02/14 06:28:43;;;;;;;3.00;2.22;;;;;;;2.31;67.94;97548.00;4170651;28;20057;-72
2022/02/14 06:30:46;;;;;;;4.28;2.78;;;;;;;2.26;69.17;97554.50;4170422;28;20106;-72
2022/02/14 06:32:46;;;;;;;;;;;;;;;2.21;69.88;97555.53;4171416;28;20044;-72
2022/02/14 06:34:47;;;;;;;4.75;2.80;;;;;;;2.18;68.73;97552.72;4170641;28;20011;-72
2022/02/14 06:36:47;;;;;;;9.95;3.25;;;;;;;2.13;67.88;97550.22;4169654;28;20501;-72
2022/02/14 06:38:47;;;;;;;6.88;4.47;;;;;;;2.08;68.21;97550.47;4170496;28;20423;-72
2022/02/14 06:40:48;;;;;;;15.13;6.63;;;;;;;2.14;69.34;97549.84;4170040;28;20440;-72
2022/02/14 06:42:50;;;;;;;8.13;4.30;;;;;;;2.24;70.64;97551.34;4169964;28;20068;-72
2022/02/14 06:44:50;;;;;;;9.77;5.38;;;;;;;2.21;68.72;97544.59;4170365;28;20041;-71
2022/02/14 06:46:53;;;;;;;12.95;6.30;;;;;;;2.25;67.04;97542.78;4170083;28;20174;-71
2022/02/14 06:48:53;;;;;;;8.80;4.20;;;;;;;2.24;67.37;97560.31;4170277;28;20493;-72
2022/02/14 06:50:54;;;;;;;5.22;3.85;;;;;;;2.31;68.53;97562.44;4170345;28;20052;-72
2022/02/14 06:52:54;;;;;;;8.23;5.22;;;;;;;2.29;68.20;97558.47;4170118;28;20449;-72
2022/02/14 06:54:55;;;;;;;7.50;3.97;;;;;;;2.24;67.45;97548.59;4170503;28;20060;-72
2022/02/14 06:56:55;;;;;;;12.88;4.97;;;;;;;2.25;67.84;97559.16;4169377;28;20095;-72
2022/02/14 06:58:55;;;;;;;6.25;3.92;;;;;;;2.23;67.42;97564.19;4169956;28;20036;-72
2022/02/14 07:00:56;;;;;;;7.07;3.40;;;;;;;2.21;68.50;97558.25;4169106;28;20056;-72
2022/02/14 07:02:56;;;;;;;21.42;10.90;;;;;;;2.19;68.41;97557.03;4169516;28;20139;-72
2022/02/14 07:04:57;;;;;;;12.30;6.38;;;;;;;2.24;69.89;97546.66;4169201;28;20040;-72
2022/02/14 07:06:58;;;;;;;12.10;5.65;;;;;;;2.24;68.89;97559.53;4168829;28;20353;-72
2022/02/14 07:08:59;;;;;;;9.43;4.78;;;;;;;2.29;68.68;97556.53;4171619;28;20127;-72
2022/02/14 07:11:00;;;;;;;10.57;4.90;;;;;;;2.30;69.34;97560.84;4169977;28;20201;-72
2022/02/14 07:13:00;;;;;;;6.20;4.00;;;;;;;2.33;67.87;97557.44;4169358;28;20508;-72
2022/02/14 07:15:01;;;;;;;8.10;3.88;;;;;;;2.43;66.36;97556.94;4170162;28;20041;-72
2022/02/14 07:17:02;;;;;;;9.82;4.25;;;;;;;2.49;66.87;97565.69;4168963;28;20152;-71
2022/02/14 07:19:03;;;;;;;5.30;3.28;;;;;;;2.52;66.86;97563.06;4169701;28;20056;-72
2022/02/14 07:21:03;;;;;;;5.90;3.35;;;;;;;2.58;67.80;97560.88;4169398;28;20047;-72
2022/02/14 07:23:05;;;;;;;3.90;2.88;;;;;;;2.57;67.40;97558.50;4169603;28;20132;-72
2022/02/14 07:25:06;;;;;;;5.85;3.72;;;;;;;2.76;67.99;97553.97;4169574;28;20045;-72
2022/02/14 07:27:07;;;;;;;3.28;2.78;;;;;;;2.92;64.82;97551.25;4168950;28;20077;-72
2022/02/14 07:29:07;;;;;;;5.88;2.85;;;;;;;2.99;65.14;97546.00;4168977;28;20664;-72
2022/02/14 07:31:07;;;;;;;4.43;2.75;;;;;;;3.02;66.74;97547.22;4168024;28;20154;-72
2022/02/14 07:33:08;;;;;;;4.18;2.47;;;;;;;3.10;65.96;97549.00;4169198;28;20064;-72
2022/02/14 07:35:09;;;;;;;5.80;3.20;;;;;;;3.13;65.51;97548.28;4170765;28;20394;-72
2022/02/14 07:37:09;;;;;;;3.55;2.65;;;;;;;3.18;63.60;97537.09;4168597;28;20052;-72
2022/02/14 07:39:11;;;;;;;4.75;2.60;;;;;;;3.33;64.04;97539.03;4169556;28;20052;-72
2022/02/14 07:41:11;;;;;;;4.00;2.38;;;;;;;3.47;61.90;97535.03;4168609;28;20036;-72
2022/02/14 07:43:12;;;;;;;5.47;2.30;;;;;;;3.54;63.45;97533.28;4170364;28;20052;-72
2022/02/14 07:45:13;;;;;;;3.70;2.30;;;;;;;3.71;61.54;97520.38;4169048;28;20136;-72
2022/02/14 07:47:13;;;;;;;3.55;2.30;;;;;;;4.06;60.67;97523.13;4168847;28;20547;-72
2022/02/14 07:49:14;;;;;;;4.13;2.45;;;;;;;4.15;61.16;97508.06;4171246;28;20040;-72
2022/02/14 07:51:16;;;;;;;5.30;2.40;;;;;;;4.15;61.61;97526.44;4168717;28;20772;-72
2022/02/14 07:53:18;;;;;;;;;;;;;;;4.09;64.21;97516.91;4169650;28;20554;-72
2022/02/14 07:55:18;;;;;;;6.45;2.10;;;;;;;4.14;60.67;97506.50;4168835;28;20008;-71
2022/02/14 07:57:19;;;;;;;3.95;2.25;;;;;;;4.22;60.66;97510.97;4168693;28;20076;-71
2022/02/14 07:59:20;;;;;;;4.13;2.20;;;;;;;4.16;63.62;97503.38;4169355;28;20444;-72
2022/02/14 08:01:21;;;;;;;7.03;2.05;;;;;;;4.20;60.83;97496.03;4169240;28;20500;-72
2022/02/14 08:03:21;;;;;;;4.47;2.22;;;;;;;4.22;61.42;97502.75;4170486;28;20250;-72
2022/02/14 08:05:22;;;;;;;4.45;2.40;;;;;;;4.29;60.87;97499.34;4169421;28;20056;-72
2022/02/14 08:07:22;;;;;;;3.95;2.70;;;;;;;4.45;60.97;97502.00;4168648;28;20355;-72
2022/02/14 08:09:22;;;;;;;4.15;1.98;;;;;;;4.59;59.20;97501.50;4169374;28;20215;-72
2022/02/14 08:11:23;;;;;;;3.55;2.00;;;;;;;4.55;59.82;97495.16;4169437;28;20076;-72
2022/02/14 08:13:23;;;;;;;2.60;2.08;;;;;;;4.50;61.91;97494.31;4168411;28;20045;-72
2022/02/14 08:15:24;;;;;;;4.00;2.47;;;;;;;4.57;61.46;97501.06;4168497;28;20122;-72
2022/02/14 08:17:24;;;;;;;3.92;2.25;;;;;;;4.63;59.65;97499.59;4169204;28;20048;-72
2022/02/14 08:19:24;;;;;;;5.45;1.70;;;;;;;4.63;59.82;97494.91;4168935;28;20110;-72
2022/02/14 08:21:26;;;;;;;2.75;2.03;;;;;;;4.77;60.91;97497.94;4169041;28;20083;-72
2022/02/14 08:23:26;;;;;;;4.07;2.80;;;;;;;4.88;58.47;97495.41;4169114;28;20708;-71
2022/02/14 08:25:27;;;;;;;3.40;2.13;;;;;;;5.07;56.73;97498.09;4169363;28;20056;-71
2022/02/14 08:27:27;;;;;;;5.38;2.22;;;;;;;5.15;57.14;97509.97;4168556;28;20830;-71
2022/02/14 08:29:28;;;;;;;5.20;2.67;;;;;;;5.36;57.12;97502.09;4169391;28;20137;-72
2022/02/14 08:31:28;;;;;;;4.40;2.35;;;;;;;5.52;55.24;97504.69;4169327;28;20072;-72
2022/02/14 08:33:30;;;;;;;4.45;1.83;;;;;;;5.59;55.09;97513.03;4169041;28;20640;-72
2022/02/14 08:35:30;;;;;;;5.65;2.40;;;;;;;5.59;54.56;97514.97;4166919;28;20080;-72
2022/02/14 08:37:30;;;;;;;3.88;2.03;;;;;;;5.70;54.24;97515.13;4168387;28;20098;-72
2022/02/14 08:39:31;;;;;;;4.25;2.47;;;;;;;5.70;55.67;97528.88;4168951;28;20045;-72
2022/02/14 08:41:31;;;;;;;4.78;2.83;;;;;;;5.61;56.25;97512.66;4169317;28;20367;-72
2022/02/14 08:43:31;;;;;;;3.30;2.28;;;;;;;5.67;55.48;97532.34;4171199;28;20498;-72
2022/02/14 08:45:32;;;;;;;3.80;2.05;;;;;;;5.61;56.94;97532.66;4171930;28;20064;-72
2022/02/14 08:47:33;;;;;;;4.18;2.28;;;;;;;5.67;55.23;97529.59;4172132;28;20055;-72
2022/02/14 08:49:35;;;;;;;4.28;2.03;;;;;;;5.66;54.88;97528.81;4172644;28;20045;-72
2022/02/14 08:51:36;;;;;;;2.58;2.05;;;;;;;5.68;56.24;97533.94;4172687;28;20073;-72
2022/02/14 08:53:37;;;;;;;3.90;2.42;;;;;;;5.80;53.56;97531.78;4171526;28;20077;-71
2022/02/14 08:55:37;;;;;;;4.28;1.80;;;;;;;5.75;57.35;97526.59;4172029;28;20603;-72
2022/02/14 08:57:37;;;;;;;2.92;2.22;;;;;;;5.76;54.13;97538.38;4171099;28;20080;-72
2022/02/14 08:59:38;;;;;;;2.83;2.00;;;;;;;5.91;53.84;97530.00;4171907;28;20049;-71
2022/02/14 09:01:39;;;;;;;3.38;2.20;;;;;;;6.00;52.85;97520.72;4171962;28;20048;-71
2022/02/14 09:03:42;;;;;;;4.72;2.20;;;;;;;6.03;54.77;97519.97;4171169;28;20049;-71
2022/02/14 09:05:42;;;;;;;3.90;2.10;;;;;;;6.23;53.32;97517.91;4172107;28;20041;-71
2022/02/14 09:07:43;;;;;;;4.22;1.95;;;;;;;6.17;53.77;97526.44;4170942;28;20211;-71
2022/02/14 09:09:43;;;;;;;4.38;2.20;;;;;;;6.18;55.10;97525.28;4171714;28;20067;-72
2022/02/14 09:11:43;;;;;;;4.82;2.45;;;;;;;6.15;54.14;97515.06;4171728;28;20107;-71
2022/02/14 09:13:44;;;;;;;3.72;1.90;;;;;;;6.27;54.47;97524.22;4171933;28;20079;-72
2022/02/14 09:15:44;;;;;;;9.13;2.17;;;;;;;6.38;52.60;97525.16;4171823;28;20087;-72
2022/02/14 09:17:45;;;;;;;4.97;2.20;;;;;;;6.52;51.74;97524.53;4170551;28;20343;-72
2022/02/14 09:19:46;;;;;;;4.28;2.50;;;;;;;6.36;52.74;97531.00;4171900;28;20057;-71
2022/02/14 09:21:46;;;;;;;3.75;2.17;;;;;;;6.43;53.42;97519.31;4171447;28;20532;-72
2022/02/14 09:23:47;;;;;;;3.28;2.15;;;;;;;6.51;53.42;97525.69;4171480;28;20171;-72
2022/02/14 09:25:47;;;;;;;3.30;2.30;;;;;;;6.56;52.10;97528.13;4171828;28;20328;-71
2022/02/14 09:27:48;;;;;;;3.03;2.25;;;;;;;6.57;50.75;97529.69;4170900;28;20052;-72
2022/02/14 09:29:48;;;;;;;3.55;2.10;;;;;;;6.52;52.27;97522.56;4171528;28;20443;-72
2022/02/14 09:31:51;;;;;;;3.03;2.00;;;;;;;6.54;50.52;97523.00;4171452;28;20041;-72
2022/02/14 09:33:52;;;;;;;3.72;2.20;;;;;;;6.43;54.16;97531.09;4168914;28;20040;-72
2022/02/14 09:35:53;;;;;;;3.05;1.83;;;;;;;6.37;54.50;97510.63;4170920;28;20060;-72